Time;durP1;ratioP1;P1;durP2;ratioP2;P2;SDS_P1;SDS_P2;PMS_P1;PMS_P2;Temp;Humidity;BMP_temperature;BMP_pressure;BME280_temperature;BME280_humidity;BME280_pressure;Samples;Min_cycle;Max_cycle;Signal;HPM_P1;HPM_P2
2023/08/23 00:00:10;;;;;;;9.20;5.18;;;;;23.10;98989.00;;;;5075295;28;20048;-65
2023/08/23 00:02:40;;;;;;;8.40;5.20;;;;;23.00;98986.00;;;;5077534;28;20090;-65
2023/08/23 00:05:07;;;;;;;6.03;4.80;;;;;22.90;98995.00;;;;5059819;28;20053;-64
2023/08/23 00:07:34;;;;;;;5.85;5.03;;;;;22.90;98991.00;;;;5077491;28;20104;-64
2023/08/23 00:10:01;;;;;;;5.75;4.97;;;;;22.90;98986.00;;;;5076836;28;20047;-63
2023/08/23 00:12:27;;;;;;;7.38;5.38;;;;;22.90;98990.00;;;;5074613;28;20075;-64
2023/08/23 00:14:54;;;;;;;6.35;5.20;;;;;22.90;98988.00;;;;5057550;28;20098;-65
2023/08/23 00:17:21;;;;;;;5.65;5.13;;;;;22.60;98991.00;;;;5058363;28;20071;-64
2023/08/23 00:19:47;;;;;;;7.35;5.28;;;;;22.50;98990.00;;;;5076754;28;20037;-64
2023/08/23 00:22:14;;;;;;;6.10;5.50;;;;;22.20;98988.00;;;;5076690;28;20072;-64
2023/08/23 00:24:40;;;;;;;5.65;4.82;;;;;22.20;98985.00;;;;5076561;28;20049;-65
2023/08/23 00:27:07;;;;;;;6.25;5.40;;;;;22.20;98990.00;;;;5076354;28;20072;-64
2023/08/23 00:29:34;;;;;;;6.10;4.90;;;;;22.10;98991.00;;;;5076417;28;20032;-64
2023/08/23 00:32:01;;;;;;;8.88;5.57;;;;;22.00;98991.00;;;;5075327;28;20055;-65
2023/08/23 00:34:27;;;;;;;5.97;5.30;;;;;22.00;98987.00;;;;5075696;28;20040;-65
2023/08/23 00:36:54;;;;;;;6.18;5.05;;;;;21.90;98994.00;;;;5076129;28;20116;-64
2023/08/23 00:39:21;;;;;;;6.07;5.20;;;;;21.80;98982.00;;;;5078267;28;20040;-64
2023/08/23 00:41:48;;;;;;;10.25;5.63;;;;;21.90;98980.00;;;;5077024;28;20032;-65
2023/08/23 00:44:14;;;;;;;9.23;5.97;;;;;21.90;98986.00;;;;5074206;28;20043;-65
2023/08/23 00:46:41;;;;;;;8.82;5.75;;;;;21.90;98986.00;;;;5072082;28;20481;-63
2023/08/23 00:49:08;;;;;;;8.68;6.20;;;;;21.70;98977.00;;;;5072126;28;20062;-65
2023/08/23 00:51:35;;;;;;;8.68;5.70;;;;;21.60;98983.00;;;;5070712;28;20044;-65
2023/08/23 00:54:03;;;;;;;7.57;5.55;;;;;21.60;98985.00;;;;5072477;28;20032;-64
2023/08/23 00:56:30;;;;;;;9.20;6.53;;;;;21.70;98980.00;;;;5072928;28;20068;-64
2023/08/23 00:58:58;;;;;;;6.72;5.60;;;;;21.70;98982.00;;;;5071027;28;20520;-66
2023/08/23 01:01:25;;;;;;;7.47;5.68;;;;;21.70;98979.00;;;;5072371;28;20079;-65
2023/08/23 01:03:55;;;;;;;11.15;5.90;;;;;21.60;98974.00;;;;5071428;28;20050;-64
2023/08/23 01:06:54;;;;;;;8.50;5.32;;;;;21.50;98978.00;;;;5071212;28;20147;-64
2023/08/23 01:09:41;;;;;;;7.82;5.95;;;;;21.40;98983.00;;;;5073484;28;20144;-64
2023/08/23 01:12:25;;;;;;;8.77;6.03;;;;;21.30;98977.00;;;;5072364;28;20520;-64
2023/08/23 01:14:58;;;;;;;7.03;5.20;;;;;21.30;98974.00;;;;5072377;28;20079;-64
2023/08/23 01:17:26;;;;;;;6.07;5.47;;;;;21.40;98981.00;;;;5072792;28;20041;-64
2023/08/23 01:19:54;;;;;;;7.60;5.53;;;;;21.20;98974.00;;;;5072174;28;20064;-64
2023/08/23 01:22:22;;;;;;;7.70;5.70;;;;;21.10;98977.00;;;;5072875;28;20098;-64
2023/08/23 01:24:51;;;;;;;6.20;5.60;;;;;21.20;98975.00;;;;5073180;28;20096;-64
2023/08/23 01:27:18;;;;;;;7.72;5.53;;;;;21.20;98980.00;;;;5073083;28;20049;-64
2023/08/23 01:29:45;;;;;;;6.68;5.50;;;;;21.20;98980.00;;;;5071487;28;20553;-64
2023/08/23 01:32:25;;;;;;;7.85;5.38;;;;;21.30;98985.00;;;;5072827;28;20040;-64
2023/08/23 01:34:56;;;;;;;6.93;5.68;;;;;21.40;98979.00;;;;5072182;28;20071;-65
2023/08/23 01:37:25;;;;;;;8.50;5.43;;;;;21.50;98985.00;;;;5072976;28;20048;-64
2023/08/23 01:39:53;;;;;;;6.68;4.90;;;;;21.60;98984.00;;;;5071457;28;20464;-64
2023/08/23 01:42:21;;;;;;;6.50;5.35;;;;;21.70;98979.00;;;;5070793;28;20147;-64
2023/08/23 01:44:52;;;;;;;10.30;5.90;;;;;21.70;98987.00;;;;5054135;28;20145;-63
2023/08/23 01:47:19;;;;;;;7.20;5.47;;;;;21.60;98986.00;;;;5072060;28;20485;-64
2023/08/23 01:49:46;;;;;;;9.25;5.63;;;;;21.60;98987.00;;;;5071834;28;20075;-64
2023/08/23 01:52:12;;;;;;;13.68;6.00;;;;;21.60;98984.00;;;;5070408;28;20052;-63
2023/08/23 01:54:39;;;;;;;6.70;5.93;;;;;21.60;98979.00;;;;5071593;28;20043;-63
2023/08/23 01:57:06;;;;;;;6.28;5.68;;;;;21.60;98985.00;;;;5071668;28;20052;-63
2023/08/23 01:59:36;;;;;;;13.50;6.30;;;;;21.60;98980.00;;;;5070087;28;20421;-63
2023/08/23 02:02:03;;;;;;;6.03;5.22;;;;;21.70;98970.00;;;;5071691;28;20045;-63
2023/08/23 02:04:30;;;;;;;9.55;5.45;;;;;21.70;98964.00;;;;5070347;28;20074;-63
2023/08/23 02:06:56;;;;;;;7.20;5.68;;;;;21.50;98962.00;;;;5071606;28;20045;-63
2023/08/23 02:09:23;;;;;;;7.03;5.68;;;;;21.30;98965.00;;;;5071331;28;20079;-63
2023/08/23 02:11:50;;;;;;;8.20;6.10;;;;;21.10;98963.00;;;;5071925;28;20405;-63
2023/08/23 02:14:16;;;;;;;7.20;5.40;;;;;21.00;98953.00;;;;5053788;28;20044;-63
2023/08/23 02:16:43;;;;;;;9.93;5.82;;;;;21.00;98952.00;;;;5071589;28;20412;-64
2023/08/23 02:19:09;;;;;;;6.63;5.88;;;;;21.00;98956.00;;;;5070427;28;20068;-64
2023/08/23 02:21:36;;;;;;;8.10;5.70;;;;;20.90;98959.00;;;;5069939;28;20068;-64
2023/08/23 02:24:03;;;;;;;9.05;5.68;;;;;20.90;98958.00;;;;5070120;28;20132;-64
2023/08/23 02:26:30;;;;;;;9.75;5.72;;;;;20.90;98957.00;;;;5070256;28;20489;-63
2023/08/23 02:28:57;;;;;;;6.70;5.88;;;;;20.80;98958.00;;;;5069964;28;20040;-64
2023/08/23 02:31:23;;;;;;;7.30;5.68;;;;;20.70;98953.00;;;;5071285;28;20079;-64
2023/08/23 02:33:50;;;;;;;6.15;5.55;;;;;20.60;98966.00;;;;5070154;28;20040;-64
2023/08/23 02:36:16;;;;;;;9.27;6.00;;;;;20.50;98961.00;;;;5055930;28;20143;-64
2023/08/23 02:38:43;;;;;;;7.28;6.55;;;;;20.50;98953.00;;;;5073748;28;20567;-64
2023/08/23 02:41:10;;;;;;;7.20;6.25;;;;;20.40;98956.00;;;;5073506;28;20048;-64
2023/08/23 02:43:36;;;;;;;8.25;6.28;;;;;20.40;98965.00;;;;5074865;28;20041;-64
2023/08/23 02:46:03;;;;;;;11.50;6.45;;;;;20.40;98957.00;;;;5073388;28;20068;-64
2023/08/23 02:48:30;;;;;;;8.45;6.15;;;;;20.40;98959.00;;;;5074599;28;20119;-64
2023/08/23 02:50:56;;;;;;;9.30;6.15;;;;;20.40;98959.00;;;;5074428;28;20068;-64
2023/08/23 02:53:23;;;;;;;8.80;6.68;;;;;20.30;98950.00;;;;5074538;28;20075;-64
2023/08/23 02:55:49;;;;;;;13.38;7.63;;;;;20.30;98951.00;;;;5073274;28;20500;-64
2023/08/23 02:58:16;;;;;;;7.18;6.47;;;;;20.20;98955.00;;;;5073412;28;20040;-63
2023/08/23 03:00:42;;;;;;;6.90;6.00;;;;;20.10;98952.00;;;;5073045;28;20144;-64
2023/08/23 03:03:10;;;;;;;16.65;11.38;;;;;20.20;98959.00;;;;5074442;28;20115;-64
2023/08/23 03:05:37;;;;;;;9.95;8.02;;;;;20.30;98965.00;;;;5074440;28;20697;-64
2023/08/23 03:08:05;;;;;;;14.45;8.65;;;;;20.50;98960.00;;;;5074373;28;20123;-64
2023/08/23 03:10:32;;;;;;;10.98;8.43;;;;;20.60;98960.00;;;;5072752;28;20083;-64
2023/08/23 03:12:58;;;;;;;9.10;7.57;;;;;20.70;98948.00;;;;5073133;28;20097;-64
2023/08/23 03:15:25;;;;;;;13.30;8.98;;;;;20.70;98952.00;;;;5072861;28;20135;-64
2023/08/23 03:17:52;;;;;;;14.05;8.57;;;;;20.50;98949.00;;;;5056502;28;20131;-64
2023/08/23 03:20:18;;;;;;;7.93;7.07;;;;;20.40;98942.00;;;;5072429;28;20049;-65
2023/08/23 03:22:45;;;;;;;10.80;7.80;;;;;20.30;98935.00;;;;5072954;28;20112;-64
2023/08/23 03:25:12;;;;;;;9.57;7.65;;;;;20.30;98929.00;;;;5056281;28;20450;-64
2023/08/23 03:27:39;;;;;;;8.45;7.55;;;;;20.40;98945.00;;;;5074224;28;20049;-64
2023/08/23 03:30:06;;;;;;;11.55;8.15;;;;;20.40;98932.00;;;;5072412;28;20366;-64
2023/08/23 03:32:33;;;;;;;8.05;6.63;;;;;20.30;98930.00;;;;5072930;28;20127;-64
2023/08/23 03:34:59;;;;;;;9.30;6.95;;;;;20.10;98934.00;;;;5072766;28;20040;-64
2023/08/23 03:37:26;;;;;;;8.77;6.38;;;;;20.10;98934.00;;;;5056416;28;20083;-65
2023/08/23 03:39:53;;;;;;;8.00;7.10;;;;;20.10;98929.00;;;;5073834;28;20070;-64
2023/08/23 03:42:19;;;;;;;8.63;7.07;;;;;20.20;98923.00;;;;5073114;28;20044;-64
2023/08/23 03:44:46;;;;;;;11.52;6.60;;;;;20.30;98921.00;;;;5072274;28;20049;-64
2023/08/23 03:47:12;;;;;;;6.40;5.82;;;;;20.40;98935.00;;;;5055344;28;20135;-64
2023/08/23 03:49:39;;;;;;;9.10;6.80;;;;;20.50;98931.00;;;;5072112;28;20083;-64
2023/08/23 03:52:06;;;;;;;8.38;7.50;;;;;20.50;98930.00;;;;5072262;28;20147;-64
2023/08/23 03:54:33;;;;;;;7.47;6.20;;;;;20.50;98937.00;;;;5072389;28;20416;-64
2023/08/23 03:57:00;;;;;;;8.60;6.28;;;;;20.60;98928.00;;;;5072321;28;20068;-64
2023/08/23 03:59:26;;;;;;;9.50;6.85;;;;;20.50;98928.00;;;;5072117;28;20125;-64
2023/08/23 04:01:53;;;;;;;12.27;8.90;;;;;20.30;98937.00;;;;5072282;28;20501;-65
2023/08/23 04:04:20;;;;;;;8.75;6.65;;;;;20.20;98926.00;;;;5072233;28;20505;-65
2023/08/23 04:06:47;;;;;;;9.18;8.05;;;;;20.30;98928.00;;;;5072357;28;20036;-65
2023/08/23 04:09:14;;;;;;;9.48;7.93;;;;;20.30;98926.00;;;;5072236;28;20551;-62
2023/08/23 04:11:41;;;;;;;10.15;7.68;;;;;20.20;98926.00;;;;5072267;28;20048;-65
2023/08/23 04:14:07;;;;;;;11.43;8.20;;;;;20.10;98928.00;;;;5055885;28;20118;-64
2023/08/23 04:16:35;;;;;;;8.65;7.75;;;;;20.00;98929.00;;;;5072349;28;20548;-65
2023/08/23 04:19:02;;;;;;;9.07;7.53;;;;;19.90;98929.00;;;;5055518;28;20051;-65
2023/08/23 04:21:28;;;;;;;10.60;7.30;;;;;19.80;98929.00;;;;5072099;28;20040;-65
2023/08/23 04:23:56;;;;;;;9.63;7.60;;;;;19.90;98935.00;;;;5072120;28;20071;-64
2023/08/23 04:26:22;;;;;;;8.88;7.07;;;;;20.00;98934.00;;;;5072376;28;20048;-65
2023/08/23 04:28:50;;;;;;;9.70;7.35;;;;;20.00;98934.00;;;;5072213;28;20053;-65
2023/08/23 04:31:16;;;;;;;7.95;7.25;;;;;19.80;98928.00;;;;5072124;28;20492;-65
2023/08/23 04:33:52;;;;;;;8.00;7.28;;;;;19.70;98934.00;;;;5071965;28;20045;-65
2023/08/23 04:36:19;;;;;;;9.63;7.63;;;;;19.70;98928.00;;;;5072649;28;20584;-65
2023/08/23 04:38:46;;;;;;;8.43;7.63;;;;;19.70;98931.00;;;;5072452;28;20421;-65
2023/08/23 04:41:13;;;;;;;8.68;7.72;;;;;19.70;98939.00;;;;5071249;28;20131;-64
2023/08/23 04:43:39;;;;;;;7.95;7.15;;;;;19.70;98929.00;;;;5071211;28;20123;-64
2023/08/23 04:46:07;;;;;;;12.15;8.65;;;;;19.70;98936.00;;;;5054777;28;20047;-64
2023/08/23 04:48:35;;;;;;;8.70;7.20;;;;;19.60;98930.00;;;;5071149;28;20044;-64
2023/08/23 04:51:04;;;;;;;11.02;7.90;;;;;19.60;98923.00;;;;5072504;28;20049;-64
2023/08/23 04:53:30;;;;;;;10.20;8.05;;;;;19.70;98934.00;;;;5073048;28;20568;-64
2023/08/23 04:55:58;;;;;;;10.75;7.50;;;;;19.70;98928.00;;;;5073701;28;20400;-64
2023/08/23 04:58:29;;;;;;;10.45;7.85;;;;;19.80;98935.00;;;;5072456;28;20070;-64
2023/08/23 05:01:03;;;;;;;7.82;7.03;;;;;20.00;98936.00;;;;5073604;28;20045;-64
2023/08/23 05:03:32;;;;;;;9.90;7.40;;;;;20.10;98937.00;;;;5072544;28;20059;-64
2023/08/23 05:05:59;;;;;;;9.65;7.82;;;;;20.20;98934.00;;;;5056268;28;20051;-64
2023/08/23 05:08:27;;;;;;;9.63;7.03;;;;;20.30;98940.00;;;;5074279;28;20043;-64
2023/08/23 05:10:57;;;;;;;7.90;6.90;;;;;20.40;98940.00;;;;5072704;28;20048;-64
2023/08/23 05:13:24;;;;;;;9.18;7.03;;;;;20.50;98934.00;;;;5073042;28;20048;-63
2023/08/23 05:15:52;;;;;;;7.85;6.90;;;;;20.60;98938.00;;;;5073662;28;20094;-64
2023/08/23 05:18:19;;;;;;;10.45;7.45;;;;;20.70;98938.00;;;;5074544;28;20144;-64
2023/08/23 05:20:52;;;;;;;8.00;7.20;;;;;20.60;98936.00;;;;5071764;28;20052;-64
2023/08/23 05:23:18;;;;;;;9.90;7.20;;;;;20.50;98937.00;;;;5072596;28;20049;-64
2023/08/23 05:25:45;;;;;;;11.75;8.50;;;;;20.40;98937.00;;;;5072614;28;20071;-64
2023/08/23 05:28:11;;;;;;;8.27;7.50;;;;;20.50;98936.00;;;;5072721;28;20052;-63
2023/08/23 05:30:39;;;;;;;9.27;6.93;;;;;20.60;98936.00;;;;5073968;28;20044;-64
2023/08/23 05:33:11;;;;;;;9.40;7.38;;;;;20.70;98937.00;;;;5072907;28;20060;-64
2023/08/23 05:35:42;;;;;;;9.95;7.50;;;;;20.70;98939.00;;;;5072765;28;20097;-63
2023/08/23 05:38:10;;;;;;;10.65;7.07;;;;;20.70;98943.00;;;;5072570;28;20071;-63
2023/08/23 05:40:40;;;;;;;7.70;6.70;;;;;20.80;98943.00;;;;5072457;28;20114;-63
2023/08/23 05:43:07;;;;;;;10.05;6.82;;;;;20.90;98952.00;;;;5056165;28;20508;-64
2023/08/23 05:45:35;;;;;;;7.32;6.63;;;;;21.00;98948.00;;;;5056388;28;20041;-64
2023/08/23 05:48:02;;;;;;;8.38;7.40;;;;;20.90;98950.00;;;;5072013;28;20094;-62
2023/08/23 05:50:28;;;;;;;10.77;7.68;;;;;20.80;98950.00;;;;5070195;28;20122;-62
2023/08/23 05:52:55;;;;;;;9.75;7.72;;;;;20.70;98943.00;;;;5070640;28;20448;-62
2023/08/23 05:55:22;;;;;;;8.00;7.20;;;;;20.90;98949.00;;;;5071600;28;20556;-62
2023/08/23 05:57:48;;;;;;;9.25;7.63;;;;;20.80;98953.00;;;;5071528;28;20045;-62
2023/08/23 06:00:15;;;;;;;11.88;8.15;;;;;20.80;98955.00;;;;5070288;28;20048;-62
2023/08/23 06:02:43;;;;;;;10.38;7.60;;;;;20.80;98953.00;;;;5071628;28;20032;-61
2023/08/23 06:05:14;;;;;;;12.63;9.00;;;;;20.80;98951.00;;;;5071402;28;20051;-62
2023/08/23 06:07:41;;;;;;;8.75;7.93;;;;;21.00;98958.00;;;;5070960;28;20101;-63
2023/08/23 06:10:09;;;;;;;13.65;8.82;;;;;21.00;98956.00;;;;5073890;28;20099;-62
2023/08/23 06:12:36;;;;;;;9.85;8.52;;;;;21.00;98956.00;;;;5074152;28;20045;-63
2023/08/23 06:15:04;;;;;;;9.70;8.38;;;;;21.10;98959.00;;;;5075237;28;20083;-63
2023/08/23 06:17:32;;;;;;;12.27;8.05;;;;;21.00;98964.00;;;;5075181;28;20046;-62
2023/08/23 06:19:58;;;;;;;10.63;9.38;;;;;21.10;98963.00;;;;5075024;28;20466;-62
2023/08/23 06:22:25;;;;;;;12.85;8.43;;;;;21.30;98969.00;;;;5075236;28;20044;-62
2023/08/23 06:24:51;;;;;;;14.18;8.20;;;;;21.30;98960.00;;;;5075149;28;20058;-63
2023/08/23 06:27:18;;;;;;;11.25;8.05;;;;;21.50;98961.00;;;;5075186;28;20071;-63
2023/08/23 06:29:45;;;;;;;11.63;8.23;;;;;21.70;98957.00;;;;5073762;28;20094;-63
2023/08/23 06:32:12;;;;;;;9.20;8.18;;;;;21.80;98953.00;;;;5075115;28;20493;-61
2023/08/23 06:34:39;;;;;;;8.35;7.47;;;;;21.90;98952.00;;;;5073562;28;20502;-61
2023/08/23 06:37:06;;;;;;;10.85;8.23;;;;;21.90;98956.00;;;;5073566;28;20121;-61
2023/08/23 06:39:32;;;;;;;12.13;8.65;;;;;22.00;98965.00;;;;5074517;28;20049;-63
2023/08/23 06:42:01;;;;;;;8.27;7.35;;;;;22.10;98958.00;;;;5074854;28;20516;-62
2023/08/23 06:44:29;;;;;;;9.65;7.85;;;;;22.10;98956.00;;;;5074705;28;20098;-62
2023/08/23 06:46:55;;;;;;;12.93;7.35;;;;;22.20;98966.00;;;;5073407;28;20119;-62
2023/08/23 06:49:22;;;;;;;7.53;6.57;;;;;22.30;98972.00;;;;5074364;28;20131;-62
2023/08/23 06:51:49;;;;;;;7.97;6.35;;;;;22.30;98973.00;;;;5074529;28;20438;-63
2023/08/23 06:54:15;;;;;;;11.50;7.47;;;;;22.40;98974.00;;;;5074533;28;20512;-62
2023/08/23 06:56:42;;;;;;;16.20;7.30;;;;;22.40;98972.00;;;;5073083;28;20486;-62
2023/08/23 06:59:08;;;;;;;9.27;7.20;;;;;22.50;98974.00;;;;5074269;28;20517;-62
2023/08/23 07:01:35;;;;;;;9.10;7.40;;;;;22.50;98977.00;;;;5072964;28;20070;-62
2023/08/23 07:04:02;;;;;;;9.40;7.57;;;;;22.70;98980.00;;;;5074327;28;20037;-62
2023/08/23 07:06:30;;;;;;;14.75;8.10;;;;;22.80;98980.00;;;;5074349;28;20654;-63
2023/08/23 07:08:57;;;;;;;8.02;6.53;;;;;22.80;98982.00;;;;5074307;28;20050;-63
2023/08/23 07:11:24;;;;;;;12.40;7.03;;;;;22.90;98972.00;;;;5074079;28;20115;-62
2023/08/23 07:13:50;;;;;;;8.60;7.07;;;;;23.00;98976.00;;;;5074040;28;20511;-62
2023/08/23 07:16:17;;;;;;;7.63;6.78;;;;;23.10;98986.00;;;;5074081;28;20041;-63
2023/08/23 07:18:44;;;;;;;13.52;6.75;;;;;23.20;98978.00;;;;5074139;28;20052;-62
2023/08/23 07:21:10;;;;;;;12.65;8.70;;;;;23.30;98982.00;;;;5072856;28;20056;-63
2023/08/23 07:23:37;;;;;;;8.07;6.07;;;;;23.40;98981.00;;;;5074095;28;20044;-63
2023/08/23 07:26:04;;;;;;;12.52;6.70;;;;;23.40;98988.00;;;;5073813;28;20041;-62
2023/08/23 07:28:30;;;;;;;10.55;7.07;;;;;23.50;98985.00;;;;5073711;28;20048;-62
2023/08/23 07:30:57;;;;;;;9.30;6.70;;;;;23.60;98990.00;;;;5073649;28;20044;-62
2023/08/23 07:33:25;;;;;;;8.15;6.10;;;;;23.70;98989.00;;;;5073815;28;20512;-62
2023/08/23 07:36:00;;;;;;;9.18;7.03;;;;;23.70;98984.00;;;;5073732;28;20055;-62
2023/08/23 07:38:28;;;;;;;13.43;8.55;;;;;23.80;98990.00;;;;5073687;28;20048;-63
2023/08/23 07:40:59;;;;;;;6.35;5.55;;;;;23.90;98988.00;;;;5072203;28;20098;-64
2023/08/23 07:43:26;;;;;;;7.55;6.15;;;;;24.00;98990.00;;;;5073470;28;20040;-63
2023/08/23 07:45:56;;;;;;;8.10;6.75;;;;;24.10;98989.00;;;;5073452;28;20119;-63
2023/08/23 07:48:23;;;;;;;9.65;5.30;;;;;24.10;98990.00;;;;5073513;28;20052;-63
2023/08/23 07:50:51;;;;;;;11.80;6.30;;;;;24.20;98986.00;;;;5073249;28;20124;-61
2023/08/23 07:53:18;;;;;;;12.30;5.85;;;;;24.30;98992.00;;;;5073350;28;20040;-62
2023/08/23 07:55:44;;;;;;;8.80;5.40;;;;;24.40;98987.00;;;;5073007;28;20036;-62
2023/08/23 07:58:11;;;;;;;9.23;6.95;;;;;24.40;98982.00;;;;5073106;28;20059;-62
2023/08/23 08:00:38;;;;;;;11.68;5.85;;;;;24.50;98979.00;;;;5073079;28;20412;-62
2023/08/23 08:03:04;;;;;;;6.47;5.03;;;;;24.60;98987.00;;;;5073226;28;20101;-62
2023/08/23 08:05:34;;;;;;;8.95;5.85;;;;;24.70;98984.00;;;;5072957;28;20046;-62
2023/08/23 08:08:02;;;;;;;7.63;5.05;;;;;24.90;98981.00;;;;5073097;28;20040;-62
2023/08/23 08:10:35;;;;;;;8.15;5.22;;;;;25.00;98980.00;;;;5072755;28;20390;-63
2023/08/23 08:13:02;;;;;;;7.28;5.03;;;;;25.00;98987.00;;;;5072909;28;20390;-63
2023/08/23 08:15:29;;;;;;;9.52;5.38;;;;;25.00;98985.00;;;;5072851;28;20040;-62
2023/08/23 08:17:56;;;;;;;6.85;4.53;;;;;25.10;98984.00;;;;5072842;28;20044;-62
2023/08/23 08:20:24;;;;;;;7.13;5.15;;;;;25.20;98980.00;;;;5072288;28;20044;-62
2023/08/23 08:22:52;;;;;;;5.68;5.13;;;;;25.20;98989.00;;;;5072777;28;20060;-63
2023/08/23 08:25:18;;;;;;;7.28;5.55;;;;;25.30;98994.00;;;;5072678;28;20045;-62
2023/08/23 08:27:45;;;;;;;7.30;5.32;;;;;25.20;98992.00;;;;5072636;28;20040;-62
2023/08/23 08:30:13;;;;;;;8.07;5.10;;;;;25.30;98999.00;;;;5072351;28;20041;-62
2023/08/23 08:32:40;;;;;;;11.18;6.47;;;;;25.40;99000.00;;;;5072649;28;20041;-62
2023/08/23 08:35:07;;;;;;;7.18;5.03;;;;;25.50;99007.00;;;;5072560;28;20044;-62
2023/08/23 08:37:34;;;;;;;14.43;5.68;;;;;25.60;99010.00;;;;5072630;28;20044;-62
2023/08/23 08:40:00;;;;;;;10.23;5.13;;;;;25.60;99011.00;;;;5072341;28;20102;-62
2023/08/23 08:42:29;;;;;;;10.63;5.63;;;;;25.90;99007.00;;;;5072400;28;20127;-62
2023/08/23 08:44:56;;;;;;;6.93;4.75;;;;;26.00;98996.00;;;;5072689;28;20434;-62
2023/08/23 08:47:23;;;;;;;6.25;4.70;;;;;26.10;98996.00;;;;5072440;28;20155;-62
2023/08/23 08:49:51;;;;;;;7.20;4.43;;;;;26.10;98991.00;;;;5072133;28;20417;-62
2023/08/23 08:52:19;;;;;;;5.25;4.15;;;;;26.20;98987.00;;;;5072295;28;20041;-62
2023/08/23 08:54:47;;;;;;;5.90;4.03;;;;;26.20;98986.00;;;;5072249;28;20045;-62
2023/08/23 08:57:15;;;;;;;5.95;5.20;;;;;26.40;98985.00;;;;5072015;28;20500;-62
2023/08/23 08:59:43;;;;;;;6.50;4.35;;;;;26.50;98991.00;;;;5071990;28;20094;-62
2023/08/23 09:02:14;;;;;;;10.07;4.38;;;;;26.50;98987.00;;;;5072351;28;20131;-62
2023/08/23 09:04:46;;;;;;;6.03;4.43;;;;;26.60;98986.00;;;;5072099;28;20044;-62
2023/08/23 09:07:13;;;;;;;5.00;3.80;;;;;26.70;98981.00;;;;5072340;28;20120;-62
2023/08/23 09:09:41;;;;;;;5.82;3.83;;;;;26.80;98977.00;;;;5070816;28;20409;-62
2023/08/23 09:12:09;;;;;;;5.72;4.10;;;;;26.90;98970.00;;;;5072221;28;20036;-63
2023/08/23 09:14:37;;;;;;;4.10;3.70;;;;;26.90;98979.00;;;;5072070;28;20048;-62
2023/08/23 09:17:04;;;;;;;6.68;5.35;;;;;26.90;98983.00;;;;5071999;28;20504;-62
2023/08/23 09:19:34;;;;;;;6.57;4.47;;;;;27.00;98981.00;;;;5071996;28;20433;-62
2023/08/23 09:22:03;;;;;;;6.57;4.68;;;;;27.10;98982.00;;;;5071081;28;20054;-62
2023/08/23 09:24:29;;;;;;;6.72;4.22;;;;;27.20;98977.00;;;;5071981;28;20464;-62
2023/08/23 09:26:56;;;;;;;5.68;3.88;;;;;27.20;98974.00;;;;5072125;28;20059;-63
2023/08/23 09:29:26;;;;;;;7.63;3.95;;;;;27.30;98978.00;;;;5071768;28;20072;-62
2023/08/23 09:31:52;;;;;;;6.25;4.72;;;;;27.40;98977.00;;;;5072195;28;20076;-63
2023/08/23 09:34:19;;;;;;;7.13;3.92;;;;;27.50;98969.00;;;;5071999;28;20053;-63
2023/08/23 09:36:47;;;;;;;6.72;4.10;;;;;27.60;98968.00;;;;5071914;28;20404;-63
2023/08/23 09:39:13;;;;;;;5.75;3.83;;;;;27.60;98967.00;;;;5070674;28;20436;-63
2023/08/23 09:41:41;;;;;;;8.60;5.40;;;;;27.70;98974.00;;;;5071861;28;20045;-63
2023/08/23 09:44:26;;;;;;;11.10;4.72;;;;;27.90;98968.00;;;;5073371;28;20049;-62
2023/08/23 09:46:55;;;;;;;5.70;3.80;;;;;28.00;98971.00;;;;5076003;28;20040;-62
2023/08/23 09:49:24;;;;;;;7.80;4.38;;;;;28.00;98966.00;;;;5075990;28;20048;-61
2023/08/23 09:51:54;;;;;;;5.40;3.85;;;;;28.10;98978.00;;;;5076253;28;20051;-61
2023/08/23 09:54:31;;;;;;;6.60;3.60;;;;;28.10;98975.00;;;;5075735;28;20044;-62
2023/08/23 09:57:11;;;;;;;13.15;8.48;;;;;28.20;98977.00;;;;5077268;28;20040;-63
2023/08/23 09:59:38;;;;;;;4.03;3.63;;;;;28.30;98977.00;;;;5078953;28;20044;-63
2023/08/23 10:02:09;;;;;;;8.35;3.78;;;;;28.30;98978.00;;;;5077960;28;20045;-63
2023/08/23 10:04:40;;;;;;;6.95;3.85;;;;;28.20;98983.00;;;;5077319;28;20036;-64
2023/08/23 10:07:08;;;;;;;7.22;4.20;;;;;28.30;98983.00;;;;5077058;28;20040;-63
2023/08/23 10:09:35;;;;;;;7.55;3.40;;;;;28.40;98983.00;;;;5076358;28;20041;-63
2023/08/23 10:12:05;;;;;;;7.13;3.45;;;;;28.50;98982.00;;;;5076053;28;20097;-64
2023/08/23 10:14:34;;;;;;;17.58;10.20;;;;;28.50;98981.00;;;;5074864;28;20127;-64
2023/08/23 10:17:03;;;;;;;5.60;3.50;;;;;28.60;98980.00;;;;5076327;28;20072;-64
2023/08/23 10:19:31;;;;;;;3.92;3.40;;;;;28.60;98978.00;;;;5076385;28;20064;-64
2023/08/23 10:21:58;;;;;;;6.05;3.25;;;;;28.60;98970.00;;;;5076906;28;20048;-64
2023/08/23 10:24:29;;;;;;;9.05;5.50;;;;;28.70;98981.00;;;;5076435;28;20044;-63
2023/08/23 10:26:55;;;;;;;6.22;3.25;;;;;28.70;98969.00;;;;5076391;28;20507;-63
2023/08/23 10:29:28;;;;;;;7.47;3.97;;;;;28.80;98983.00;;;;5075911;28;20064;-64
2023/08/23 10:31:55;;;;;;;;;;;;;28.90;98974.00;;;;5075713;28;20090;-64
2023/08/23 10:34:26;;;;;;;4.88;3.20;;;;;28.90;98980.00;;;;5075710;28;19927;-64
2023/08/23 10:36:56;;;;;;;5.32;3.20;;;;;28.90;98982.00;;;;5076269;28;20051;-63
2023/08/23 10:39:27;;;;;;;6.97;3.45;;;;;28.90;98979.00;;;;5075838;28;20041;-64
2023/08/23 10:41:54;;;;;;;4.80;2.97;;;;;28.80;98972.00;;;;5074378;28;20059;-63
2023/08/23 10:44:21;;;;;;;6.03;2.95;;;;;28.80;98979.00;;;;5074499;28;20052;-63
2023/08/23 10:46:51;;;;;;;6.47;3.53;;;;;28.80;98972.00;;;;5075591;28;20036;-62
2023/08/23 10:49:21;;;;;;;6.30;3.53;;;;;28.80;98973.00;;;;5074365;28;20136;-63
2023/08/23 10:51:48;;;;;;;3.10;2.42;;;;;28.80;98973.00;;;;5075213;28;20048;-62
2023/08/23 10:54:15;;;;;;;3.47;2.75;;;;;28.90;98968.00;;;;5075351;28;20045;-64
2023/08/23 10:56:42;;;;;;;5.60;2.80;;;;;29.00;98963.00;;;;5074642;28;20072;-64
2023/08/23 10:59:09;;;;;;;6.60;2.90;;;;;29.10;98970.00;;;;5076124;28;20128;-64
2023/08/23 11:01:39;;;;;;;4.25;2.30;;;;;29.20;98971.00;;;;5074899;28;20043;-64
2023/08/23 11:04:07;;;;;;;2.78;2.17;;;;;29.20;98965.00;;;;5074638;28;20056;-64
2023/08/23 11:06:35;;;;;;;4.65;2.30;;;;;29.30;98965.00;;;;5074167;28;20067;-64
2023/08/23 11:09:01;;;;;;;2.67;2.33;;;;;29.30;98966.00;;;;5074297;28;20072;-64
2023/08/23 11:11:29;;;;;;;5.60;2.60;;;;;29.30;98970.00;;;;5074050;28;20044;-63
2023/08/23 11:13:56;;;;;;;4.22;2.50;;;;;29.40;98973.00;;;;5056510;28;20048;-63
2023/08/23 11:16:23;;;;;;;3.50;2.13;;;;;29.40;98978.00;;;;5074192;28;20058;-64
2023/08/23 11:18:50;;;;;;;4.22;2.58;;;;;29.40;98971.00;;;;5074303;28;20044;-62
2023/08/23 11:21:17;;;;;;;5.72;2.20;;;;;29.50;98968.00;;;;5073959;28;20086;-64
2023/08/23 11:23:43;;;;;;;6.63;2.17;;;;;29.50;98971.00;;;;5074064;28;20050;-64
2023/08/23 11:26:10;;;;;;;6.03;2.50;;;;;29.50;98965.00;;;;5072775;28;20132;-63
2023/08/23 11:28:37;;;;;;;4.20;2.28;;;;;29.50;98966.00;;;;5072771;28;20139;-63
2023/08/23 11:31:06;;;;;;;3.55;2.00;;;;;29.60;98966.00;;;;5073810;28;20151;-64
2023/08/23 11:33:33;;;;;;;2.95;1.60;;;;;29.80;98968.00;;;;5072772;28;20436;-63
2023/08/23 11:36:04;;;;;;;3.25;1.83;;;;;29.80;98963.00;;;;5073956;28;20115;-63
2023/08/23 11:38:31;;;;;;;1.90;1.50;;;;;29.80;98962.00;;;;5073671;28;20037;-63
2023/08/23 11:40:57;;;;;;;1.80;1.50;;;;;29.90;98964.00;;;;5073482;28;20057;-64
2023/08/23 11:43:28;;;;;;;1.52;1.38;;;;;29.90;98960.00;;;;5073586;28;20098;-63
2023/08/23 11:45:56;;;;;;;3.08;1.52;;;;;29.90;98961.00;;;;5073619;28;20047;-63
2023/08/23 11:48:26;;;;;;;1.98;1.45;;;;;29.90;98953.00;;;;5073689;28;20040;-63
2023/08/23 11:50:52;;;;;;;2.33;1.52;;;;;29.90;98954.00;;;;5073285;28;20499;-63
2023/08/23 11:53:19;;;;;;;3.15;1.20;;;;;29.90;98960.00;;;;5073485;28;20037;-63
2023/08/23 11:55:48;;;;;;;2.03;1.50;;;;;30.00;98951.00;;;;5073452;28;20041;-62
2023/08/23 11:58:15;;;;;;;2.45;1.70;;;;;30.00;98960.00;;;;5073302;28;20113;-63
2023/08/23 12:00:42;;;;;;;2.72;1.40;;;;;30.10;98956.00;;;;5073252;28;20044;-63
2023/08/23 12:03:09;;;;;;;2.15;1.63;;;;;30.00;98955.00;;;;5073440;28;20043;-63
2023/08/23 12:05:36;;;;;;;1.92;1.50;;;;;30.10;98958.00;;;;5074610;28;20559;-63
2023/08/23 12:08:03;;;;;;;2.42;1.85;;;;;30.30;98955.00;;;;5074468;28;20098;-63
2023/08/23 12:10:30;;;;;;;3.80;1.98;;;;;30.10;98957.00;;;;5074319;28;20494;-63
2023/08/23 12:12:57;;;;;;;2.38;1.35;;;;;30.20;98956.00;;;;5073566;28;20051;-64
2023/08/23 12:15:24;;;;;;;3.05;1.35;;;;;30.30;98956.00;;;;5072327;28;20044;-63
2023/08/23 12:17:53;;;;;;;2.63;1.50;;;;;30.40;98953.00;;;;5073199;28;20041;-63